British Virtual Airways Airport Information Service

Oslo Gardermoen Airport

ICAO: ENGM Country: Norway
Latitude: 60.1939 Longitude: 11.1004
Latest Arrival : BAW766(1) (EGLL-ENGM) Latest Departure : BAW767(2) (ENGM-EGLL)


WX CaptureLIVE
Data provided by noaa.gov | Fetched at 06:39:37

METAR : ENGM 050620Z 17005KT 7000 -DZ OVC004 02/01 Q1025 TEMPO 4000 -DZRA

TAF : ENGM 050500Z 0506/0606 19008KT 8000 -DZ BKN006 TEMPO 0506/0513 0700 FG VV002 BECMG 0511/0513 SCT015


Runway Data for ENGM
Data provided by openaviationdata.com

Runway ID Mag Var Hdg Length Elevation Surface ILS Freq ILS Id ILS Slope
01L 2 13° 11784 ft 681 ft Asphalt 110.3 OBW 3
01R 2 13° 9656 ft 681 ft Asphalt 111.95 ONE 3
19L 2 193° 9656 ft 681 ft Asphalt 110.55 GME 3
19R 2 193° 11784 ft 681 ft Asphalt 111.3 GSW 3

Oslo Gardermoen Airport, Norway
Use only for reference purposes



Not for navigational purposes.